sensor_id;sensor_type;location;lat;lon;timestamp;temperature;humidity
21722;DHT22;11023;48.274;7.794;2022-09-16T00:00:44;13.90;99.90
21722;DHT22;11023;48.274;7.794;2022-09-16T00:03:11;13.90;99.90
21722;DHT22;11023;48.274;7.794;2022-09-16T00:05:45;13.80;99.90
21722;DHT22;11023;48.274;7.794;2022-09-16T00:08:12;13.80;99.90
21722;DHT22;11023;48.274;7.794;2022-09-16T00:10:39;13.80;99.90
21722;DHT22;11023;48.274;7.794;2022-09-16T00:13:05;13.70;99.90
21722;DHT22;11023;48.274;7.794;2022-09-16T00:15:31;13.70;99.90
21722;DHT22;11023;48.274;7.794;2022-09-16T00:17:57;13.70;99.90
21722;DHT22;11023;48.274;7.794;2022-09-16T00:20:23;13.70;99.90
21722;DHT22;11023;48.274;7.794;2022-09-16T00:22:48;13.70;99.90
21722;DHT22;11023;48.274;7.794;2022-09-16T00:25:14;13.60;99.90
21722;DHT22;11023;48.274;7.794;2022-09-16T00:27:40;13.70;99.90
21722;DHT22;11023;48.274;7.794;2022-09-16T00:30:06;13.70;99.90
21722;DHT22;11023;48.274;7.794;2022-09-16T00:32:31;13.50;99.90
21722;DHT22;11023;48.274;7.794;2022-09-16T00:34:57;13.50;99.90
21722;DHT22;11023;48.274;7.794;2022-09-16T00:37:23;13.40;99.90
21722;DHT22;11023;48.274;7.794;2022-09-16T00:39:49;13.40;99.90
21722;DHT22;11023;48.274;7.794;2022-09-16T00:42:15;13.40;99.90
21722;DHT22;11023;48.274;7.794;2022-09-16T00:44:56;13.30;99.90
21722;DHT22;11023;48.274;7.794;2022-09-16T00:47:34;13.40;99.90
21722;DHT22;11023;48.274;7.794;2022-09-16T00:50:21;13.30;99.90
21722;DHT22;11023;48.274;7.794;2022-09-16T00:52:49;13.30;99.90
21722;DHT22;11023;48.274;7.794;2022-09-16T00:55:19;13.30;99.90
21722;DHT22;11023;48.274;7.794;2022-09-16T00:57:46;13.30;99.90
21722;DHT22;11023;48.274;7.794;2022-09-16T01:00:12;13.30;99.90
21722;DHT22;11023;48.274;7.794;2022-09-16T01:02:40;13.30;99.90
21722;DHT22;11023;48.274;7.794;2022-09-16T01:05:13;13.30;99.90
21722;DHT22;11023;48.274;7.794;2022-09-16T01:07:46;13.30;99.90
21722;DHT22;11023;48.274;7.794;2022-09-16T01:10:13;13.30;99.90
21722;DHT22;11023;48.274;7.794;2022-09-16T01:12:45;13.30;99.90
21722;DHT22;11023;48.274;7.794;2022-09-16T01:15:12;13.20;99.90
21722;DHT22;11023;48.274;7.794;2022-09-16T01:17:53;13.20;99.90
21722;DHT22;11023;48.274;7.794;2022-09-16T01:31:45;13.10;99.90
21722;DHT22;11023;48.274;7.794;2022-09-16T01:43:21;13.20;99.90
21722;DHT22;11023;48.274;7.794;2022-09-16T01:48:42;13.30;99.90
21722;DHT22;11023;48.274;7.794;2022-09-16T01:51:29;13.30;99.90
21722;DHT22;11023;48.274;7.794;2022-09-16T01:54:07;13.30;99.90
21722;DHT22;11023;48.274;7.794;2022-09-16T01:56:45;13.40;99.90
21722;DHT22;11023;48.274;7.794;2022-09-16T02:01:56;13.40;99.90
21722;DHT22;11023;48.274;7.794;2022-09-16T02:04:30;13.50;99.90
21722;DHT22;11023;48.274;7.794;2022-09-16T02:06:58;13.50;99.90
21722;DHT22;11023;48.274;7.794;2022-09-16T02:09:33;13.50;99.90
21722;DHT22;11023;48.274;7.794;2022-09-16T02:12:05;13.60;99.90
21722;DHT22;11023;48.274;7.794;2022-09-16T02:14:38;13.60;99.90
21722;DHT22;11023;48.274;7.794;2022-09-16T02:17:19;13.70;99.90
21722;DHT22;11023;48.274;7.794;2022-09-16T02:19:50;13.70;99.90
21722;DHT22;11023;48.274;7.794;2022-09-16T02:22:28;13.70;99.90
21722;DHT22;11023;48.274;7.794;2022-09-16T02:24:58;13.70;99.90
21722;DHT22;11023;48.274;7.794;2022-09-16T02:27:25;13.70;99.90
21722;DHT22;11023;48.274;7.794;2022-09-16T02:30:00;13.80;99.90
21722;DHT22;11023;48.274;7.794;2022-09-16T02:32:27;13.80;99.90
21722;DHT22;11023;48.274;7.794;2022-09-16T02:34:54;13.80;99.90
21722;DHT22;11023;48.274;7.794;2022-09-16T02:37:30;13.80;99.90
21722;DHT22;11023;48.274;7.794;2022-09-16T02:39:59;13.80;99.90
21722;DHT22;11023;48.274;7.794;2022-09-16T02:42:29;13.90;99.90
21722;DHT22;11023;48.274;7.794;2022-09-16T02:44:56;13.90;99.90
21722;DHT22;11023;48.274;7.794;2022-09-16T02:48:14;13.90;99.90
21722;DHT22;11023;48.274;7.794;2022-09-16T02:50:46;13.90;99.90
21722;DHT22;11023;48.274;7.794;2022-09-16T02:55:54;14.00;99.90
21722;DHT22;11023;48.274;7.794;2022-09-16T02:58:22;14.00;99.90
21722;DHT22;11023;48.274;7.794;2022-09-16T03:00:51;14.00;99.90
21722;DHT22;11023;48.274;7.794;2022-09-16T03:03:18;14.00;99.90
21722;DHT22;11023;48.274;7.794;2022-09-16T03:06:36;14.00;99.90
21722;DHT22;11023;48.274;7.794;2022-09-16T03:09:01;14.00;99.90
21722;DHT22;11023;48.274;7.794;2022-09-16T03:17:26;14.00;99.90
21722;DHT22;11023;48.274;7.794;2022-09-16T03:20:07;14.00;99.90
21722;DHT22;11023;48.274;7.794;2022-09-16T03:28:26;14.10;99.90
21722;DHT22;11023;48.274;7.794;2022-09-16T03:34:13;14.10;99.90
21722;DHT22;11023;48.274;7.794;2022-09-16T03:36:44;14.20;99.90
21722;DHT22;11023;48.274;7.794;2022-09-16T03:39:12;14.20;99.90
21722;DHT22;11023;48.274;7.794;2022-09-16T03:41:39;14.20;99.90
21722;DHT22;11023;48.274;7.794;2022-09-16T03:44:05;14.20;99.90
21722;DHT22;11023;48.274;7.794;2022-09-16T03:46:30;14.30;99.90
21722;DHT22;11023;48.274;7.794;2022-09-16T03:48:57;14.20;99.90
21722;DHT22;11023;48.274;7.794;2022-09-16T03:51:24;14.20;99.90
21722;DHT22;11023;48.274;7.794;2022-09-16T03:53:53;14.30;99.90
21722;DHT22;11023;48.274;7.794;2022-09-16T03:56:20;14.30;99.90
21722;DHT22;11023;48.274;7.794;2022-09-16T03:58:47;14.30;99.90
21722;DHT22;11023;48.274;7.794;2022-09-16T04:01:13;14.40;99.90
21722;DHT22;11023;48.274;7.794;2022-09-16T04:03:39;14.40;99.90
21722;DHT22;11023;48.274;7.794;2022-09-16T04:06:05;14.30;99.90
21722;DHT22;11023;48.274;7.794;2022-09-16T04:08:31;14.40;99.90
21722;DHT22;11023;48.274;7.794;2022-09-16T04:11:01;14.40;99.90
21722;DHT22;11023;48.274;7.794;2022-09-16T04:13:29;14.40;99.90
21722;DHT22;11023;48.274;7.794;2022-09-16T04:15:55;14.40;99.90
21722;DHT22;11023;48.274;7.794;2022-09-16T04:18:21;14.50;99.90
21722;DHT22;11023;48.274;7.794;2022-09-16T04:20:47;14.50;99.90
21722;DHT22;11023;48.274;7.794;2022-09-16T04:23:12;14.50;99.90
21722;DHT22;11023;48.274;7.794;2022-09-16T04:25:38;14.60;99.90
21722;DHT22;11023;48.274;7.794;2022-09-16T04:28:05;14.50;99.90
21722;DHT22;11023;48.274;7.794;2022-09-16T04:30:32;14.50;99.90
21722;DHT22;11023;48.274;7.794;2022-09-16T04:32:57;14.40;99.90
21722;DHT22;11023;48.274;7.794;2022-09-16T04:35:23;14.50;99.90
21722;DHT22;11023;48.274;7.794;2022-09-16T04:37:50;14.50;99.90
21722;DHT22;11023;48.274;7.794;2022-09-16T04:40:16;14.50;99.90
21722;DHT22;11023;48.274;7.794;2022-09-16T04:42:48;14.50;99.90
21722;DHT22;11023;48.274;7.794;2022-09-16T04:45:14;14.50;99.90
21722;DHT22;11023;48.274;7.794;2022-09-16T04:47:40;14.50;99.90
21722;DHT22;11023;48.274;7.794;2022-09-16T04:50:05;14.50;99.90
21722;DHT22;11023;48.274;7.794;2022-09-16T04:52:31;14.50;99.90
21722;DHT22;11023;48.274;7.794;2022-09-16T04:54:57;14.50;99.90
21722;DHT22;11023;48.274;7.794;2022-09-16T04:57:23;14.50;99.90
21722;DHT22;11023;48.274;7.794;2022-09-16T04:59:48;14.40;99.90
21722;DHT22;11023;48.274;7.794;2022-09-16T05:02:14;14.40;99.90
21722;DHT22;11023;48.274;7.794;2022-09-16T05:04:39;14.40;99.90
21722;DHT22;11023;48.274;7.794;2022-09-16T05:07:05;14.40;99.90
21722;DHT22;11023;48.274;7.794;2022-09-16T05:09:31;14.40;99.90
21722;DHT22;11023;48.274;7.794;2022-09-16T05:11:56;14.40;99.90
21722;DHT22;11023;48.274;7.794;2022-09-16T05:14:22;14.40;99.90
21722;DHT22;11023;48.274;7.794;2022-09-16T05:16:47;14.40;99.90
21722;DHT22;11023;48.274;7.794;2022-09-16T05:19:13;14.40;99.90
21722;DHT22;11023;48.274;7.794;2022-09-16T05:21:40;14.50;99.90
21722;DHT22;11023;48.274;7.794;2022-09-16T05:24:08;14.40;99.90
21722;DHT22;11023;48.274;7.794;2022-09-16T05:26:36;14.40;99.90
21722;DHT22;11023;48.274;7.794;2022-09-16T05:29:04;14.40;99.90
21722;DHT22;11023;48.274;7.794;2022-09-16T05:31:33;14.40;99.90
21722;DHT22;11023;48.274;7.794;2022-09-16T05:34:05;14.40;99.90
21722;DHT22;11023;48.274;7.794;2022-09-16T05:36:33;14.50;99.90
21722;DHT22;11023;48.274;7.794;2022-09-16T05:39:00;14.50;99.90
21722;DHT22;11023;48.274;7.794;2022-09-16T05:41:26;14.40;99.90
21722;DHT22;11023;48.274;7.794;2022-09-16T05:43:52;14.40;99.90
21722;DHT22;11023;48.274;7.794;2022-09-16T05:46:21;14.40;99.90
21722;DHT22;11023;48.274;7.794;2022-09-16T05:48:48;14.40;99.90
21722;DHT22;11023;48.274;7.794;2022-09-16T05:51:18;14.40;99.90
21722;DHT22;11023;48.274;7.794;2022-09-16T05:53:45;14.40;99.90
21722;DHT22;11023;48.274;7.794;2022-09-16T05:56:22;14.40;99.90
21722;DHT22;11023;48.274;7.794;2022-09-16T05:58:51;14.50;99.90
21722;DHT22;11023;48.274;7.794;2022-09-16T06:01:19;14.50;99.90
21722;DHT22;11023;48.274;7.794;2022-09-16T06:03:47;14.50;99.90
21722;DHT22;11023;48.274;7.794;2022-09-16T06:06:23;14.50;99.90
21722;DHT22;11023;48.274;7.794;2022-09-16T06:08:50;14.50;99.90
21722;DHT22;11023;48.274;7.794;2022-09-16T06:11:16;14.50;99.90
21722;DHT22;11023;48.274;7.794;2022-09-16T06:13:42;14.50;99.90
21722;DHT22;11023;48.274;7.794;2022-09-16T06:16:09;14.50;99.90
21722;DHT22;11023;48.274;7.794;2022-09-16T06:18:35;14.50;99.90
21722;DHT22;11023;48.274;7.794;2022-09-16T06:21:07;14.60;99.90
21722;DHT22;11023;48.274;7.794;2022-09-16T06:23:34;14.70;99.90
21722;DHT22;11023;48.274;7.794;2022-09-16T06:28:31;14.70;99.90
21722;DHT22;11023;48.274;7.794;2022-09-16T06:33:31;14.70;99.90
21722;DHT22;11023;48.274;7.794;2022-09-16T06:35:56;14.70;99.90
21722;DHT22;11023;48.274;7.794;2022-09-16T06:38:23;14.60;99.90
21722;DHT22;11023;48.274;7.794;2022-09-16T06:40:49;14.50;99.90
21722;DHT22;11023;48.274;7.794;2022-09-16T06:43:15;14.40;99.90
21722;DHT22;11023;48.274;7.794;2022-09-16T06:45:40;14.30;99.90
21722;DHT22;11023;48.274;7.794;2022-09-16T06:48:06;14.30;99.90
21722;DHT22;11023;48.274;7.794;2022-09-16T06:50:32;14.20;99.90
21722;DHT22;11023;48.274;7.794;2022-09-16T06:52:58;14.20;99.90
21722;DHT22;11023;48.274;7.794;2022-09-16T06:55:24;14.10;99.90
21722;DHT22;11023;48.274;7.794;2022-09-16T06:57:50;14.10;99.90
21722;DHT22;11023;48.274;7.794;2022-09-16T07:00:16;14.00;99.90
21722;DHT22;11023;48.274;7.794;2022-09-16T07:02:41;13.90;99.90
21722;DHT22;11023;48.274;7.794;2022-09-16T07:05:07;13.90;99.90
21722;DHT22;11023;48.274;7.794;2022-09-16T07:07:34;13.80;99.90
21722;DHT22;11023;48.274;7.794;2022-09-16T07:10:01;13.70;99.90
21722;DHT22;11023;48.274;7.794;2022-09-16T07:12:27;13.60;99.90
21722;DHT22;11023;48.274;7.794;2022-09-16T07:14:53;13.50;99.90
21722;DHT22;11023;48.274;7.794;2022-09-16T07:17:18;13.40;99.90
21722;DHT22;11023;48.274;7.794;2022-09-16T07:19:47;13.40;99.90
21722;DHT22;11023;48.274;7.794;2022-09-16T07:22:13;13.40;99.90
21722;DHT22;11023;48.274;7.794;2022-09-16T07:24:39;13.40;99.90
21722;DHT22;11023;48.274;7.794;2022-09-16T07:27:04;13.40;99.90
21722;DHT22;11023;48.274;7.794;2022-09-16T07:29:30;13.40;99.90
21722;DHT22;11023;48.274;7.794;2022-09-16T07:31:56;13.40;99.90
21722;DHT22;11023;48.274;7.794;2022-09-16T07:34:21;13.30;99.90
21722;DHT22;11023;48.274;7.794;2022-09-16T07:36:48;13.30;99.90
21722;DHT22;11023;48.274;7.794;2022-09-16T07:39:16;13.20;99.90
21722;DHT22;11023;48.274;7.794;2022-09-16T07:41:44;13.20;99.90
21722;DHT22;11023;48.274;7.794;2022-09-16T07:44:14;13.20;99.90
21722;DHT22;11023;48.274;7.794;2022-09-16T07:46:40;13.10;99.90
21722;DHT22;11023;48.274;7.794;2022-09-16T07:49:08;13.20;99.90
21722;DHT22;11023;48.274;7.794;2022-09-16T07:51:35;13.20;99.90
21722;DHT22;11023;48.274;7.794;2022-09-16T07:54:06;13.30;99.90
21722;DHT22;11023;48.274;7.794;2022-09-16T07:56:34;13.30;99.90
21722;DHT22;11023;48.274;7.794;2022-09-16T07:59:01;13.40;99.90
21722;DHT22;11023;48.274;7.794;2022-09-16T08:01:27;13.50;99.90
21722;DHT22;11023;48.274;7.794;2022-09-16T08:03:55;13.60;99.90
21722;DHT22;11023;48.274;7.794;2022-09-16T08:06:24;13.60;99.90
21722;DHT22;11023;48.274;7.794;2022-09-16T08:08:52;13.70;99.90
21722;DHT22;11023;48.274;7.794;2022-09-16T08:11:18;13.70;99.90
21722;DHT22;11023;48.274;7.794;2022-09-16T08:13:44;13.60;99.90
21722;DHT22;11023;48.274;7.794;2022-09-16T08:16:13;13.70;99.90
21722;DHT22;11023;48.274;7.794;2022-09-16T08:18:39;13.70;99.90
21722;DHT22;11023;48.274;7.794;2022-09-16T08:21:06;13.70;99.90
21722;DHT22;11023;48.274;7.794;2022-09-16T08:23:33;13.80;99.90
21722;DHT22;11023;48.274;7.794;2022-09-16T08:25:59;13.90;99.90
21722;DHT22;11023;48.274;7.794;2022-09-16T08:28:26;14.00;99.90
21722;DHT22;11023;48.274;7.794;2022-09-16T08:30:52;14.10;99.90
21722;DHT22;11023;48.274;7.794;2022-09-16T08:33:18;14.20;99.90
21722;DHT22;11023;48.274;7.794;2022-09-16T08:35:56;14.30;99.90
21722;DHT22;11023;48.274;7.794;2022-09-16T08:38:21;14.50;99.90
21722;DHT22;11023;48.274;7.794;2022-09-16T08:40:47;14.60;99.90
21722;DHT22;11023;48.274;7.794;2022-09-16T08:43:22;14.70;99.90
21722;DHT22;11023;48.274;7.794;2022-09-16T08:46:07;14.80;99.90
21722;DHT22;11023;48.274;7.794;2022-09-16T08:51:16;15.10;99.90
21722;DHT22;11023;48.274;7.794;2022-09-16T08:54:05;15.20;99.90
21722;DHT22;11023;48.274;7.794;2022-09-16T08:56:32;15.30;99.90
21722;DHT22;11023;48.274;7.794;2022-09-16T08:59:04;15.40;99.90
21722;DHT22;11023;48.274;7.794;2022-09-16T09:01:39;15.50;99.90
21722;DHT22;11023;48.274;7.794;2022-09-16T09:04:06;15.60;99.90
21722;DHT22;11023;48.274;7.794;2022-09-16T09:12:33;15.80;99.90
21722;DHT22;11023;48.274;7.794;2022-09-16T09:17:53;15.80;99.90
21722;DHT22;11023;48.274;7.794;2022-09-16T09:20:25;15.90;99.90
21722;DHT22;11023;48.274;7.794;2022-09-16T09:26:03;15.90;99.90
21722;DHT22;11023;48.274;7.794;2022-09-16T09:28:43;15.90;99.90
21722;DHT22;11023;48.274;7.794;2022-09-16T09:44:57;15.60;99.90
21722;DHT22;11023;48.274;7.794;2022-09-16T09:47:41;15.60;99.90
21722;DHT22;11023;48.274;7.794;2022-09-16T09:50:21;15.60;99.90
21722;DHT22;11023;48.274;7.794;2022-09-16T09:56:00;15.70;99.90
21722;DHT22;11023;48.274;7.794;2022-09-16T09:58:42;15.70;99.90
21722;DHT22;11023;48.274;7.794;2022-09-16T10:01:09;15.60;99.90
21722;DHT22;11023;48.274;7.794;2022-09-16T10:03:36;15.60;99.90
21722;DHT22;11023;48.274;7.794;2022-09-16T10:06:03;15.70;99.90
21722;DHT22;11023;48.274;7.794;2022-09-16T10:08:35;15.80;99.90
21722;DHT22;11023;48.274;7.794;2022-09-16T10:11:18;15.80;99.90
21722;DHT22;11023;48.274;7.794;2022-09-16T10:13:50;16.00;99.90
21722;DHT22;11023;48.274;7.794;2022-09-16T10:16:21;16.20;99.90
21722;DHT22;11023;48.274;7.794;2022-09-16T10:19:00;16.20;99.90
21722;DHT22;11023;48.274;7.794;2022-09-16T10:21:37;16.40;99.90
21722;DHT22;11023;48.274;7.794;2022-09-16T10:24:04;16.40;99.90
21722;DHT22;11023;48.274;7.794;2022-09-16T10:26:30;16.40;99.90
21722;DHT22;11023;48.274;7.794;2022-09-16T10:29:15;16.40;99.90
21722;DHT22;11023;48.274;7.794;2022-09-16T10:31:42;16.50;99.90
21722;DHT22;11023;48.274;7.794;2022-09-16T10:34:36;16.50;99.90
21722;DHT22;11023;48.274;7.794;2022-09-16T10:39:59;16.60;99.90
21722;DHT22;11023;48.274;7.794;2022-09-16T10:42:26;16.70;99.90
21722;DHT22;11023;48.274;7.794;2022-09-16T10:44:54;16.60;99.90
21722;DHT22;11023;48.274;7.794;2022-09-16T10:47:24;16.70;99.90
21722;DHT22;11023;48.274;7.794;2022-09-16T10:49:56;16.80;99.90
21722;DHT22;11023;48.274;7.794;2022-09-16T10:52:26;16.80;99.90
21722;DHT22;11023;48.274;7.794;2022-09-16T10:54:52;16.80;99.90
21722;DHT22;11023;48.274;7.794;2022-09-16T10:57:30;16.80;99.90
21722;DHT22;11023;48.274;7.794;2022-09-16T11:00:05;16.80;99.90
21722;DHT22;11023;48.274;7.794;2022-09-16T11:05:05;17.00;99.90
21722;DHT22;11023;48.274;7.794;2022-09-16T11:19:11;17.30;99.90
21722;DHT22;11023;48.274;7.794;2022-09-16T11:24:46;17.30;99.90
21722;DHT22;11023;48.274;7.794;2022-09-16T11:30:22;17.30;99.90
21722;DHT22;11023;48.274;7.794;2022-09-16T11:33:20;17.30;99.90
21722;DHT22;11023;48.274;7.794;2022-09-16T11:36:18;17.40;99.90
21722;DHT22;11023;48.274;7.794;2022-09-16T11:41:54;17.30;99.90
21722;DHT22;11023;48.274;7.794;2022-09-16T11:47:20;17.30;99.90
21722;DHT22;11023;48.274;7.794;2022-09-16T11:56:01;17.30;99.90
21722;DHT22;11023;48.274;7.794;2022-09-16T11:58:49;17.40;99.90
21722;DHT22;11023;48.274;7.794;2022-09-16T12:01:43;17.30;99.90
21722;DHT22;11023;48.274;7.794;2022-09-16T12:07:08;17.50;99.90
21722;DHT22;11023;48.274;7.794;2022-09-16T12:12:19;17.50;99.90
21722;DHT22;11023;48.274;7.794;2022-09-16T12:15:12;17.60;99.90
21722;DHT22;11023;48.274;7.794;2022-09-16T12:17:54;17.60;99.90
21722;DHT22;11023;48.274;7.794;2022-09-16T12:20:29;17.60;99.90
21722;DHT22;11023;48.274;7.794;2022-09-16T12:23:19;17.60;99.90
21722;DHT22;11023;48.274;7.794;2022-09-16T12:26:07;17.60;99.90
21722;DHT22;11023;48.274;7.794;2022-09-16T12:31:25;17.60;99.90
21722;DHT22;11023;48.274;7.794;2022-09-16T12:34:22;17.50;99.90
21722;DHT22;11023;48.274;7.794;2022-09-16T12:36:58;17.50;99.90
21722;DHT22;11023;48.274;7.794;2022-09-16T12:39:24;17.50;99.90
21722;DHT22;11023;48.274;7.794;2022-09-16T12:44:59;17.50;99.90
21722;DHT22;11023;48.274;7.794;2022-09-16T13:01:50;17.90;99.90
21722;DHT22;11023;48.274;7.794;2022-09-16T13:04:27;18.00;99.90
21722;DHT22;11023;48.274;7.794;2022-09-16T13:06:56;18.00;99.90
21722;DHT22;11023;48.274;7.794;2022-09-16T13:09:39;18.00;99.90
21722;DHT22;11023;48.274;7.794;2022-09-16T13:12:24;18.20;99.90
21722;DHT22;11023;48.274;7.794;2022-09-16T13:15:03;18.40;99.90
21722;DHT22;11023;48.274;7.794;2022-09-16T13:17:34;18.50;99.90
21722;DHT22;11023;48.274;7.794;2022-09-16T13:25:57;18.40;99.90
21722;DHT22;11023;48.274;7.794;2022-09-16T13:33:37;18.40;99.90
21722;DHT22;11023;48.274;7.794;2022-09-16T13:36:27;18.40;99.90
21722;DHT22;11023;48.274;7.794;2022-09-16T13:39:04;18.40;99.90
21722;DHT22;11023;48.274;7.794;2022-09-16T13:43:59;18.60;99.90
21722;DHT22;11023;48.274;7.794;2022-09-16T13:49:13;18.50;99.90
21722;DHT22;11023;48.274;7.794;2022-09-16T13:51:43;18.40;99.90
21722;DHT22;11023;48.274;7.794;2022-09-16T13:54:28;18.40;99.90
21722;DHT22;11023;48.274;7.794;2022-09-16T13:57:12;18.40;99.90
21722;DHT22;11023;48.274;7.794;2022-09-16T14:02:27;18.50;99.90
21722;DHT22;11023;48.274;7.794;2022-09-16T14:11:06;18.40;99.90
21722;DHT22;11023;48.274;7.794;2022-09-16T14:13:44;18.40;99.90
21722;DHT22;11023;48.274;7.794;2022-09-16T14:16:21;18.30;99.90
21722;DHT22;11023;48.274;7.794;2022-09-16T14:21:43;18.20;99.90
21722;DHT22;11023;48.274;7.794;2022-09-16T14:24:15;18.20;99.90
21722;DHT22;11023;48.274;7.794;2022-09-16T14:26:53;18.10;99.90
21722;DHT22;11023;48.274;7.794;2022-09-16T14:29:19;18.00;99.90
21722;DHT22;11023;48.274;7.794;2022-09-16T14:31:44;17.90;99.90
21722;DHT22;11023;48.274;7.794;2022-09-16T14:34:23;17.90;99.90
21722;DHT22;11023;48.274;7.794;2022-09-16T14:36:50;17.90;99.90
21722;DHT22;11023;48.274;7.794;2022-09-16T14:39:19;17.90;99.90
21722;DHT22;11023;48.274;7.794;2022-09-16T14:41:57;17.90;99.90
21722;DHT22;11023;48.274;7.794;2022-09-16T14:47:43;17.90;99.90
21722;DHT22;11023;48.274;7.794;2022-09-16T14:49:54;17.80;99.90
21722;DHT22;11023;48.274;7.794;2022-09-16T14:52:24;17.80;99.90
21722;DHT22;11023;48.274;7.794;2022-09-16T14:54:50;17.90;99.90
21722;DHT22;11023;48.274;7.794;2022-09-16T14:57:20;17.90;99.90
21722;DHT22;11023;48.274;7.794;2022-09-16T14:59:57;18.00;99.90
21722;DHT22;11023;48.274;7.794;2022-09-16T15:02:35;18.10;99.90
21722;DHT22;11023;48.274;7.794;2022-09-16T15:07:40;18.40;99.90
21722;DHT22;11023;48.274;7.794;2022-09-16T15:10:19;18.70;99.90
21722;DHT22;11023;48.274;7.794;2022-09-16T15:15:22;19.20;99.90
21722;DHT22;11023;48.274;7.794;2022-09-16T15:18:07;19.40;99.90
21722;DHT22;11023;48.274;7.794;2022-09-16T15:20:37;19.50;99.90
21722;DHT22;11023;48.274;7.794;2022-09-16T15:23:04;19.30;99.90
21722;DHT22;11023;48.274;7.794;2022-09-16T15:25:32;19.30;99.90
21722;DHT22;11023;48.274;7.794;2022-09-16T15:28:14;19.10;99.90
21722;DHT22;11023;48.274;7.794;2022-09-16T15:30:49;19.00;99.90
21722;DHT22;11023;48.274;7.794;2022-09-16T15:33:42;19.00;99.90
21722;DHT22;11023;48.274;7.794;2022-09-16T15:36:33;19.00;99.90
21722;DHT22;11023;48.274;7.794;2022-09-16T15:38:59;18.90;99.90
21722;DHT22;11023;48.274;7.794;2022-09-16T15:41:25;18.90;99.90
21722;DHT22;11023;48.274;7.794;2022-09-16T15:43:51;18.90;99.90
21722;DHT22;11023;48.274;7.794;2022-09-16T15:46:21;19.00;99.90
21722;DHT22;11023;48.274;7.794;2022-09-16T15:49:01;19.00;99.90
21722;DHT22;11023;48.274;7.794;2022-09-16T15:51:51;18.90;99.90
21722;DHT22;11023;48.274;7.794;2022-09-16T15:54:30;18.80;99.90
21722;DHT22;11023;48.274;7.794;2022-09-16T15:57:09;18.80;99.90
21722;DHT22;11023;48.274;7.794;2022-09-16T16:05:17;18.60;99.90
21722;DHT22;11023;48.274;7.794;2022-09-16T16:07:45;18.60;99.90
21722;DHT22;11023;48.274;7.794;2022-09-16T16:12:43;18.50;99.90
21722;DHT22;11023;48.274;7.794;2022-09-16T16:15:15;18.50;99.90
21722;DHT22;11023;48.274;7.794;2022-09-16T16:17:42;18.50;99.90
21722;DHT22;11023;48.274;7.794;2022-09-16T16:20:10;18.40;99.90
21722;DHT22;11023;48.274;7.794;2022-09-16T16:22:38;18.40;99.90
21722;DHT22;11023;48.274;7.794;2022-09-16T16:25:05;18.40;99.90
21722;DHT22;11023;48.274;7.794;2022-09-16T16:27:32;18.40;99.90
21722;DHT22;11023;48.274;7.794;2022-09-16T16:29:57;18.50;99.90
21722;DHT22;11023;48.274;7.794;2022-09-16T16:32:23;18.60;99.90
21722;DHT22;11023;48.274;7.794;2022-09-16T16:34:49;18.60;99.90
21722;DHT22;11023;48.274;7.794;2022-09-16T16:37:16;18.60;99.90
21722;DHT22;11023;48.274;7.794;2022-09-16T16:39:42;18.50;99.90
21722;DHT22;11023;48.274;7.794;2022-09-16T16:42:12;18.40;99.90
21722;DHT22;11023;48.274;7.794;2022-09-16T16:44:38;18.30;99.90
21722;DHT22;11023;48.274;7.794;2022-09-16T16:47:05;18.30;99.90
21722;DHT22;11023;48.274;7.794;2022-09-16T16:49:31;18.20;99.90
21722;DHT22;11023;48.274;7.794;2022-09-16T16:51:58;18.10;99.90
21722;DHT22;11023;48.274;7.794;2022-09-16T16:54:24;17.80;99.90
21722;DHT22;11023;48.274;7.794;2022-09-16T16:56:50;17.30;99.90
21722;DHT22;11023;48.274;7.794;2022-09-16T16:59:17;16.90;99.90
21722;DHT22;11023;48.274;7.794;2022-09-16T17:01:44;16.60;99.90
21722;DHT22;11023;48.274;7.794;2022-09-16T17:04:10;16.20;99.90
21722;DHT22;11023;48.274;7.794;2022-09-16T17:06:36;15.90;99.90
21722;DHT22;11023;48.274;7.794;2022-09-16T17:09:07;15.60;99.90
21722;DHT22;11023;48.274;7.794;2022-09-16T17:11:34;15.30;99.90
21722;DHT22;11023;48.274;7.794;2022-09-16T17:14:03;15.20;99.90
21722;DHT22;11023;48.274;7.794;2022-09-16T17:16:29;15.00;99.90
21722;DHT22;11023;48.274;7.794;2022-09-16T17:18:57;14.90;99.90
21722;DHT22;11023;48.274;7.794;2022-09-16T17:21:31;14.80;99.90
21722;DHT22;11023;48.274;7.794;2022-09-16T17:23:58;14.70;99.90
21722;DHT22;11023;48.274;7.794;2022-09-16T17:26:25;14.60;99.90
21722;DHT22;11023;48.274;7.794;2022-09-16T17:28:51;14.50;99.90
21722;DHT22;11023;48.274;7.794;2022-09-16T17:31:19;14.50;99.90
21722;DHT22;11023;48.274;7.794;2022-09-16T17:33:47;14.50;99.90
21722;DHT22;11023;48.274;7.794;2022-09-16T17:36:15;14.50;99.90
21722;DHT22;11023;48.274;7.794;2022-09-16T17:38:41;14.50;99.90
21722;DHT22;11023;48.274;7.794;2022-09-16T17:41:14;14.50;99.90
21722;DHT22;11023;48.274;7.794;2022-09-16T17:43:41;14.50;99.90
21722;DHT22;11023;48.274;7.794;2022-09-16T17:46:11;14.50;99.90
21722;DHT22;11023;48.274;7.794;2022-09-16T17:48:37;14.50;99.90
21722;DHT22;11023;48.274;7.794;2022-09-16T17:51:04;14.50;99.90
21722;DHT22;11023;48.274;7.794;2022-09-16T17:53:30;14.50;99.90
21722;DHT22;11023;48.274;7.794;2022-09-16T17:56:04;14.50;99.90
21722;DHT22;11023;48.274;7.794;2022-09-16T17:58:30;14.50;99.90
21722;DHT22;11023;48.274;7.794;2022-09-16T18:01:05;14.60;99.90
21722;DHT22;11023;48.274;7.794;2022-09-16T18:03:32;14.60;99.90
21722;DHT22;11023;48.274;7.794;2022-09-16T18:06:07;14.60;99.90
21722;DHT22;11023;48.274;7.794;2022-09-16T18:08:34;14.60;99.90
21722;DHT22;11023;48.274;7.794;2022-09-16T18:11:00;14.60;99.90
21722;DHT22;11023;48.274;7.794;2022-09-16T18:13:25;14.60;99.90
21722;DHT22;11023;48.274;7.794;2022-09-16T18:15:51;14.60;99.90
21722;DHT22;11023;48.274;7.794;2022-09-16T18:18:16;14.60;99.90
21722;DHT22;11023;48.274;7.794;2022-09-16T18:20:43;14.50;99.90
21722;DHT22;11023;48.274;7.794;2022-09-16T18:23:10;14.50;99.90
21722;DHT22;11023;48.274;7.794;2022-09-16T18:25:39;14.40;99.90
21722;DHT22;11023;48.274;7.794;2022-09-16T18:28:05;14.40;99.90
21722;DHT22;11023;48.274;7.794;2022-09-16T18:30:31;14.40;99.90
21722;DHT22;11023;48.274;7.794;2022-09-16T18:32:56;14.40;99.90
21722;DHT22;11023;48.274;7.794;2022-09-16T18:35:22;14.30;99.90
21722;DHT22;11023;48.274;7.794;2022-09-16T18:37:47;14.20;99.90
21722;DHT22;11023;48.274;7.794;2022-09-16T18:40:13;14.20;99.90
21722;DHT22;11023;48.274;7.794;2022-09-16T18:42:40;14.10;99.90
21722;DHT22;11023;48.274;7.794;2022-09-16T18:45:06;14.10;99.90
21722;DHT22;11023;48.274;7.794;2022-09-16T18:47:32;14.00;99.90
21722;DHT22;11023;48.274;7.794;2022-09-16T18:49:57;14.00;99.90
21722;DHT22;11023;48.274;7.794;2022-09-16T18:52:23;13.90;99.90
21722;DHT22;11023;48.274;7.794;2022-09-16T18:54:49;13.80;99.90